sensor_id;sensor_type;location;lat;lon;timestamp;P1;durP1;ratioP1;P2;durP2;ratioP2
37131;SDS011;23035;50.032;21.978;2022-10-26T00:01:16;52.13;;;24.10;;
37131;SDS011;23035;50.032;21.978;2022-10-26T00:06:20;16.00;;;7.68;;
37131;SDS011;23035;50.032;21.978;2022-10-26T00:11:27;15.38;;;7.28;;
37131;SDS011;23035;50.032;21.978;2022-10-26T00:16:31;12.80;;;8.40;;
37131;SDS011;23035;50.032;21.978;2022-10-26T00:21:35;15.43;;;7.55;;
37131;SDS011;23035;50.032;21.978;2022-10-26T00:26:40;15.32;;;8.13;;
37131;SDS011;23035;50.032;21.978;2022-10-26T00:31:44;16.58;;;7.78;;
37131;SDS011;23035;50.032;21.978;2022-10-26T00:36:48;15.48;;;7.72;;
37131;SDS011;23035;50.032;21.978;2022-10-26T00:41:53;13.30;;;6.82;;
37131;SDS011;23035;50.032;21.978;2022-10-26T00:46:56;13.43;;;7.63;;
37131;SDS011;23035;50.032;21.978;2022-10-26T00:52:00;23.00;;;10.35;;
37131;SDS011;23035;50.032;21.978;2022-10-26T00:57:05;21.60;;;9.00;;
37131;SDS011;23035;50.032;21.978;2022-10-26T01:02:09;15.20;;;8.55;;
37131;SDS011;23035;50.032;21.978;2022-10-26T01:07:14;20.92;;;8.35;;
37131;SDS011;23035;50.032;21.978;2022-10-26T01:12:19;16.27;;;7.32;;
37131;SDS011;23035;50.032;21.978;2022-10-26T01:17:33;15.90;;;8.23;;
37131;SDS011;23035;50.032;21.978;2022-10-26T01:22:46;15.07;;;7.57;;
37131;SDS011;23035;50.032;21.978;2022-10-26T01:27:57;14.05;;;7.80;;
37131;SDS011;23035;50.032;21.978;2022-10-26T01:33:28;15.85;;;7.63;;
37131;SDS011;23035;50.032;21.978;2022-10-26T01:38:43;15.02;;;8.38;;
37131;SDS011;23035;50.032;21.978;2022-10-26T01:49:03;13.98;;;7.03;;
37131;SDS011;23035;50.032;21.978;2022-10-26T01:54:10;16.65;;;8.00;;
37131;SDS011;23035;50.032;21.978;2022-10-26T01:59:31;15.10;;;8.32;;
37131;SDS011;23035;50.032;21.978;2022-10-26T02:04:55;15.85;;;8.80;;
37131;SDS011;23035;50.032;21.978;2022-10-26T02:10:12;19.60;;;7.88;;
37131;SDS011;23035;50.032;21.978;2022-10-26T02:15:26;17.05;;;8.23;;
37131;SDS011;23035;50.032;21.978;2022-10-26T02:20:38;17.08;;;8.30;;
37131;SDS011;23035;50.032;21.978;2022-10-26T02:25:46;17.00;;;8.73;;
37131;SDS011;23035;50.032;21.978;2022-10-26T02:30:56;20.60;;;7.82;;
37131;SDS011;23035;50.032;21.978;2022-10-26T02:36:04;14.38;;;7.13;;
37131;SDS011;23035;50.032;21.978;2022-10-26T02:41:11;15.63;;;8.55;;
37131;SDS011;23035;50.032;21.978;2022-10-26T02:46:17;17.58;;;8.20;;
37131;SDS011;23035;50.032;21.978;2022-10-26T02:51:28;12.30;;;7.05;;
37131;SDS011;23035;50.032;21.978;2022-10-26T02:56:39;12.93;;;7.28;;
37131;SDS011;23035;50.032;21.978;2022-10-26T03:01:49;12.02;;;7.00;;
37131;SDS011;23035;50.032;21.978;2022-10-26T03:06:55;12.63;;;6.77;;
37131;SDS011;23035;50.032;21.978;2022-10-26T03:11:59;14.75;;;6.07;;
37131;SDS011;23035;50.032;21.978;2022-10-26T03:17:03;15.02;;;6.47;;
37131;SDS011;23035;50.032;21.978;2022-10-26T03:22:08;13.60;;;6.38;;
37131;SDS011;23035;50.032;21.978;2022-10-26T03:27:12;12.75;;;6.72;;
37131;SDS011;23035;50.032;21.978;2022-10-26T03:32:16;15.18;;;6.50;;
37131;SDS011;23035;50.032;21.978;2022-10-26T03:37:21;17.00;;;7.50;;
37131;SDS011;23035;50.032;21.978;2022-10-26T03:42:25;23.58;;;7.63;;
37131;SDS011;23035;50.032;21.978;2022-10-26T03:47:29;14.52;;;6.72;;
37131;SDS011;23035;50.032;21.978;2022-10-26T03:52:34;19.58;;;8.20;;
37131;SDS011;23035;50.032;21.978;2022-10-26T03:57:41;16.37;;;7.63;;
37131;SDS011;23035;50.032;21.978;2022-10-26T04:02:45;13.27;;;6.78;;
37131;SDS011;23035;50.032;21.978;2022-10-26T04:07:58;17.42;;;7.65;;
37131;SDS011;23035;50.032;21.978;2022-10-26T04:13:04;22.92;;;8.80;;
37131;SDS011;23035;50.032;21.978;2022-10-26T04:18:08;12.40;;;7.70;;
37131;SDS011;23035;50.032;21.978;2022-10-26T04:23:15;13.93;;;7.97;;
37131;SDS011;23035;50.032;21.978;2022-10-26T04:28:20;13.70;;;8.23;;
37131;SDS011;23035;50.032;21.978;2022-10-26T04:33:24;18.52;;;8.63;;
37131;SDS011;23035;50.032;21.978;2022-10-26T04:38:29;18.40;;;10.05;;
37131;SDS011;23035;50.032;21.978;2022-10-26T04:43:33;17.27;;;8.85;;
37131;SDS011;23035;50.032;21.978;2022-10-26T04:48:37;12.93;;;7.82;;
37131;SDS011;23035;50.032;21.978;2022-10-26T04:53:42;13.55;;;8.02;;
37131;SDS011;23035;50.032;21.978;2022-10-26T04:58:46;17.23;;;9.15;;
37131;SDS011;23035;50.032;21.978;2022-10-26T05:03:50;16.65;;;7.57;;
37131;SDS011;23035;50.032;21.978;2022-10-26T05:08:56;22.80;;;10.20;;
37131;SDS011;23035;50.032;21.978;2022-10-26T05:14:00;20.70;;;9.50;;
37131;SDS011;23035;50.032;21.978;2022-10-26T05:19:04;15.38;;;8.38;;
37131;SDS011;23035;50.032;21.978;2022-10-26T05:24:09;18.90;;;7.68;;
37131;SDS011;23035;50.032;21.978;2022-10-26T05:29:13;18.70;;;8.77;;
37131;SDS011;23035;50.032;21.978;2022-10-26T05:34:17;15.05;;;7.40;;
37131;SDS011;23035;50.032;21.978;2022-10-26T05:39:22;16.27;;;7.57;;
37131;SDS011;23035;50.032;21.978;2022-10-26T05:44:26;13.77;;;7.13;;
37131;SDS011;23035;50.032;21.978;2022-10-26T05:49:30;18.77;;;7.18;;
37131;SDS011;23035;50.032;21.978;2022-10-26T05:54:35;11.85;;;6.82;;
37131;SDS011;23035;50.032;21.978;2022-10-26T05:59:39;14.20;;;7.47;;
37131;SDS011;23035;50.032;21.978;2022-10-26T06:04:43;18.08;;;6.35;;
37131;SDS011;23035;50.032;21.978;2022-10-26T06:09:51;14.13;;;7.25;;
37131;SDS011;23035;50.032;21.978;2022-10-26T06:14:56;14.60;;;7.10;;
37131;SDS011;23035;50.032;21.978;2022-10-26T06:20:07;17.90;;;8.67;;
37131;SDS011;23035;50.032;21.978;2022-10-26T06:25:23;22.95;;;8.18;;
37131;SDS011;23035;50.032;21.978;2022-10-26T06:30:35;16.40;;;7.95;;
37131;SDS011;23035;50.032;21.978;2022-10-26T06:35:42;17.70;;;7.57;;
37131;SDS011;23035;50.032;21.978;2022-10-26T06:40:54;17.52;;;8.80;;
37131;SDS011;23035;50.032;21.978;2022-10-26T06:46:01;13.27;;;6.85;;
37131;SDS011;23035;50.032;21.978;2022-10-26T06:51:14;17.02;;;6.88;;
37131;SDS011;23035;50.032;21.978;2022-10-26T06:56:20;11.75;;;7.53;;
37131;SDS011;23035;50.032;21.978;2022-10-26T07:01:26;14.93;;;8.07;;
37131;SDS011;23035;50.032;21.978;2022-10-26T07:06:30;17.15;;;7.97;;
37131;SDS011;23035;50.032;21.978;2022-10-26T07:11:39;18.48;;;8.75;;
37131;SDS011;23035;50.032;21.978;2022-10-26T07:16:43;14.57;;;9.10;;
37131;SDS011;23035;50.032;21.978;2022-10-26T07:21:47;18.48;;;8.57;;
37131;SDS011;23035;50.032;21.978;2022-10-26T07:26:53;17.80;;;8.10;;
37131;SDS011;23035;50.032;21.978;2022-10-26T07:31:58;21.42;;;8.63;;
37131;SDS011;23035;50.032;21.978;2022-10-26T07:37:01;14.45;;;8.80;;
37131;SDS011;23035;50.032;21.978;2022-10-26T07:42:07;16.27;;;8.95;;
37131;SDS011;23035;50.032;21.978;2022-10-26T07:47:11;18.80;;;8.60;;
37131;SDS011;23035;50.032;21.978;2022-10-26T07:52:15;17.40;;;8.52;;
37131;SDS011;23035;50.032;21.978;2022-10-26T07:57:20;19.23;;;8.48;;
37131;SDS011;23035;50.032;21.978;2022-10-26T08:02:24;21.58;;;8.50;;
37131;SDS011;23035;50.032;21.978;2022-10-26T08:07:28;22.58;;;7.65;;
37131;SDS011;23035;50.032;21.978;2022-10-26T08:12:33;17.10;;;7.70;;
37131;SDS011;23035;50.032;21.978;2022-10-26T08:17:37;11.90;;;6.50;;
37131;SDS011;23035;50.032;21.978;2022-10-26T08:22:41;14.07;;;6.88;;
37131;SDS011;23035;50.032;21.978;2022-10-26T08:27:46;18.52;;;6.80;;
37131;SDS011;23035;50.032;21.978;2022-10-26T08:32:56;12.40;;;5.50;;
37131;SDS011;23035;50.032;21.978;2022-10-26T08:38:01;12.30;;;5.55;;
37131;SDS011;23035;50.032;21.978;2022-10-26T08:43:09;11.45;;;5.55;;
37131;SDS011;23035;50.032;21.978;2022-10-26T08:48:19;12.98;;;5.95;;
37131;SDS011;23035;50.032;21.978;2022-10-26T08:53:28;21.08;;;5.80;;
37131;SDS011;23035;50.032;21.978;2022-10-26T08:58:38;15.48;;;5.47;;
37131;SDS011;23035;50.032;21.978;2022-10-26T09:03:46;11.55;;;4.90;;
37131;SDS011;23035;50.032;21.978;2022-10-26T09:08:52;14.77;;;4.90;;
37131;SDS011;23035;50.032;21.978;2022-10-26T09:14:08;8.77;;;4.28;;
37131;SDS011;23035;50.032;21.978;2022-10-26T09:19:22;12.05;;;4.10;;
37131;SDS011;23035;50.032;21.978;2022-10-26T09:24:48;8.13;;;3.63;;
37131;SDS011;23035;50.032;21.978;2022-10-26T09:29:57;8.30;;;3.83;;
37131;SDS011;23035;50.032;21.978;2022-10-26T09:35:09;9.30;;;4.30;;
37131;SDS011;23035;50.032;21.978;2022-10-26T09:40:20;9.07;;;3.65;;
37131;SDS011;23035;50.032;21.978;2022-10-26T09:45:29;7.45;;;3.05;;
37131;SDS011;23035;50.032;21.978;2022-10-26T09:50:38;11.45;;;3.67;;
37131;SDS011;23035;50.032;21.978;2022-10-26T09:55:46;9.20;;;3.28;;
37131;SDS011;23035;50.032;21.978;2022-10-26T10:00:54;7.55;;;2.28;;
37131;SDS011;23035;50.032;21.978;2022-10-26T10:06:13;7.18;;;3.22;;
37131;SDS011;23035;50.032;21.978;2022-10-26T10:11:18;9.40;;;3.42;;
37131;SDS011;23035;50.032;21.978;2022-10-26T10:16:24;9.05;;;3.22;;
37131;SDS011;23035;50.032;21.978;2022-10-26T10:21:34;6.07;;;3.22;;
37131;SDS011;23035;50.032;21.978;2022-10-26T10:26:44;8.57;;;3.58;;
37131;SDS011;23035;50.032;21.978;2022-10-26T10:32:01;7.68;;;3.35;;
37131;SDS011;23035;50.032;21.978;2022-10-26T10:37:05;12.23;;;3.38;;
37131;SDS011;23035;50.032;21.978;2022-10-26T10:42:25;9.55;;;3.90;;
37131;SDS011;23035;50.032;21.978;2022-10-26T10:57:44;9.07;;;4.15;;
37131;SDS011;23035;50.032;21.978;2022-10-26T11:08:39;11.30;;;5.18;;
37131;SDS011;23035;50.032;21.978;2022-10-26T11:13:50;16.83;;;7.80;;
37131;SDS011;23035;50.032;21.978;2022-10-26T11:18:59;15.30;;;4.90;;
37131;SDS011;23035;50.032;21.978;2022-10-26T11:24:14;14.10;;;4.68;;
37131;SDS011;23035;50.032;21.978;2022-10-26T11:29:25;9.02;;;4.50;;
37131;SDS011;23035;50.032;21.978;2022-10-26T11:34:43;7.95;;;3.85;;
37131;SDS011;23035;50.032;21.978;2022-10-26T11:39:57;13.73;;;4.35;;
37131;SDS011;23035;50.032;21.978;2022-10-26T11:45:09;11.85;;;4.15;;
37131;SDS011;23035;50.032;21.978;2022-10-26T11:50:20;7.70;;;2.95;;
37131;SDS011;23035;50.032;21.978;2022-10-26T11:55:26;9.38;;;3.40;;
37131;SDS011;23035;50.032;21.978;2022-10-26T12:00:31;9.88;;;4.28;;
37131;SDS011;23035;50.032;21.978;2022-10-26T12:10:48;6.43;;;3.20;;
37131;SDS011;23035;50.032;21.978;2022-10-26T12:16:00;5.20;;;2.25;;
37131;SDS011;23035;50.032;21.978;2022-10-26T12:21:09;4.85;;;2.53;;
37131;SDS011;23035;50.032;21.978;2022-10-26T12:31:42;7.07;;;2.80;;
37131;SDS011;23035;50.032;21.978;2022-10-26T12:36:46;8.73;;;3.30;;
37131;SDS011;23035;50.032;21.978;2022-10-26T12:41:55;6.38;;;3.13;;
37131;SDS011;23035;50.032;21.978;2022-10-26T12:47:00;7.30;;;3.20;;
37131;SDS011;23035;50.032;21.978;2022-10-26T12:52:16;16.77;;;8.73;;
37131;SDS011;23035;50.032;21.978;2022-10-26T12:57:25;4.80;;;2.80;;
37131;SDS011;23035;50.032;21.978;2022-10-26T13:02:38;7.38;;;3.28;;
37131;SDS011;23035;50.032;21.978;2022-10-26T13:07:59;10.35;;;3.13;;
37131;SDS011;23035;50.032;21.978;2022-10-26T13:13:06;7.72;;;3.00;;
37131;SDS011;23035;50.032;21.978;2022-10-26T13:18:13;6.85;;;2.85;;
37131;SDS011;23035;50.032;21.978;2022-10-26T13:28:33;5.85;;;2.90;;
37131;SDS011;23035;50.032;21.978;2022-10-26T13:33:46;9.23;;;3.13;;
37131;SDS011;23035;50.032;21.978;2022-10-26T13:38:55;6.28;;;2.78;;
37131;SDS011;23035;50.032;21.978;2022-10-26T13:44:05;7.38;;;2.25;;
37131;SDS011;23035;50.032;21.978;2022-10-26T13:54:27;7.60;;;2.90;;
37131;SDS011;23035;50.032;21.978;2022-10-26T13:59:38;9.32;;;2.65;;
37131;SDS011;23035;50.032;21.978;2022-10-26T14:04:47;7.60;;;2.75;;
37131;SDS011;23035;50.032;21.978;2022-10-26T14:09:54;6.00;;;2.90;;
37131;SDS011;23035;50.032;21.978;2022-10-26T14:15:04;8.90;;;3.95;;
37131;SDS011;23035;50.032;21.978;2022-10-26T14:20:12;9.10;;;4.18;;
37131;SDS011;23035;50.032;21.978;2022-10-26T14:25:21;15.07;;;3.50;;
37131;SDS011;23035;50.032;21.978;2022-10-26T14:30:48;12.80;;;6.63;;
37131;SDS011;23035;50.032;21.978;2022-10-26T14:35:53;17.35;;;6.35;;
37131;SDS011;23035;50.032;21.978;2022-10-26T14:40:58;9.63;;;4.40;;
37131;SDS011;23035;50.032;21.978;2022-10-26T14:46:04;12.25;;;3.38;;
37131;SDS011;23035;50.032;21.978;2022-10-26T14:51:09;9.88;;;3.13;;
37131;SDS011;23035;50.032;21.978;2022-10-26T14:56:20;9.18;;;3.50;;
37131;SDS011;23035;50.032;21.978;2022-10-26T15:01:31;10.00;;;3.63;;
37131;SDS011;23035;50.032;21.978;2022-10-26T15:06:49;8.88;;;3.65;;
37131;SDS011;23035;50.032;21.978;2022-10-26T15:11:53;12.13;;;4.70;;
37131;SDS011;23035;50.032;21.978;2022-10-26T15:16:59;9.85;;;4.32;;
37131;SDS011;23035;50.032;21.978;2022-10-26T15:22:03;8.32;;;4.18;;
37131;SDS011;23035;50.032;21.978;2022-10-26T15:27:11;15.00;;;5.38;;
37131;SDS011;23035;50.032;21.978;2022-10-26T15:32:20;13.75;;;6.10;;
37131;SDS011;23035;50.032;21.978;2022-10-26T15:37:29;13.88;;;6.60;;
37131;SDS011;23035;50.032;21.978;2022-10-26T15:42:34;25.30;;;9.70;;
37131;SDS011;23035;50.032;21.978;2022-10-26T15:47:41;24.35;;;12.05;;
37131;SDS011;23035;50.032;21.978;2022-10-26T15:52:45;34.08;;;14.75;;
37131;SDS011;23035;50.032;21.978;2022-10-26T15:57:51;43.08;;;19.52;;
37131;SDS011;23035;50.032;21.978;2022-10-26T16:02:56;28.30;;;12.40;;
37131;SDS011;23035;50.032;21.978;2022-10-26T16:08:00;22.25;;;8.93;;
37131;SDS011;23035;50.032;21.978;2022-10-26T16:13:03;19.73;;;9.13;;
37131;SDS011;23035;50.032;21.978;2022-10-26T16:18:14;93.32;;;43.17;;
37131;SDS011;23035;50.032;21.978;2022-10-26T16:23:18;124.03;;;52.50;;
37131;SDS011;23035;50.032;21.978;2022-10-26T16:28:22;25.38;;;13.40;;
37131;SDS011;23035;50.032;21.978;2022-10-26T16:33:27;51.78;;;27.20;;
37131;SDS011;23035;50.032;21.978;2022-10-26T16:38:31;35.83;;;17.95;;
37131;SDS011;23035;50.032;21.978;2022-10-26T16:43:36;49.88;;;25.25;;
37131;SDS011;23035;50.032;21.978;2022-10-26T16:53:47;81.57;;;37.45;;
37131;SDS011;23035;50.032;21.978;2022-10-26T16:58:52;73.75;;;36.05;;
37131;SDS011;23035;50.032;21.978;2022-10-26T17:04:00;67.90;;;28.30;;
37131;SDS011;23035;50.032;21.978;2022-10-26T17:09:04;69.00;;;31.23;;
37131;SDS011;23035;50.032;21.978;2022-10-26T17:14:09;68.47;;;32.10;;
37131;SDS011;23035;50.032;21.978;2022-10-26T17:19:14;71.68;;;30.23;;
37131;SDS011;23035;50.032;21.978;2022-10-26T17:24:18;65.30;;;30.58;;
37131;SDS011;23035;50.032;21.978;2022-10-26T17:29:22;65.80;;;28.65;;
37131;SDS011;23035;50.032;21.978;2022-10-26T17:34:27;75.68;;;35.97;;
37131;SDS011;23035;50.032;21.978;2022-10-26T17:39:31;78.78;;;39.20;;
37131;SDS011;23035;50.032;21.978;2022-10-26T17:44:35;75.28;;;34.28;;
37131;SDS011;23035;50.032;21.978;2022-10-26T17:49:41;53.87;;;27.13;;
37131;SDS011;23035;50.032;21.978;2022-10-26T17:54:45;63.65;;;30.95;;
37131;SDS011;23035;50.032;21.978;2022-10-26T17:59:49;67.38;;;37.08;;
37131;SDS011;23035;50.032;21.978;2022-10-26T18:04:54;52.58;;;24.20;;
37131;SDS011;23035;50.032;21.978;2022-10-26T18:09:58;48.22;;;26.33;;
37131;SDS011;23035;50.032;21.978;2022-10-26T18:15:22;64.30;;;33.13;;
37131;SDS011;23035;50.032;21.978;2022-10-26T18:20:28;55.70;;;26.40;;
37131;SDS011;23035;50.032;21.978;2022-10-26T18:25:32;48.65;;;21.23;;
37131;SDS011;23035;50.032;21.978;2022-10-26T18:30:37;42.30;;;19.73;;
37131;SDS011;23035;50.032;21.978;2022-10-26T18:35:42;37.60;;;19.05;;
37131;SDS011;23035;50.032;21.978;2022-10-26T18:40:50;28.40;;;12.93;;
37131;SDS011;23035;50.032;21.978;2022-10-26T18:46:01;23.08;;;13.20;;
37131;SDS011;23035;50.032;21.978;2022-10-26T18:51:08;38.97;;;17.55;;
37131;SDS011;23035;50.032;21.978;2022-10-26T18:56:14;28.75;;;14.45;;
37131;SDS011;23035;50.032;21.978;2022-10-26T19:01:20;33.17;;;14.52;;
37131;SDS011;23035;50.032;21.978;2022-10-26T19:06:27;27.00;;;14.10;;
37131;SDS011;23035;50.032;21.978;2022-10-26T19:11:33;91.70;;;39.05;;
37131;SDS011;23035;50.032;21.978;2022-10-26T19:16:38;94.10;;;38.40;;
37131;SDS011;23035;50.032;21.978;2022-10-26T19:21:51;45.88;;;18.80;;
37131;SDS011;23035;50.032;21.978;2022-10-26T19:26:55;25.75;;;15.18;;
37131;SDS011;23035;50.032;21.978;2022-10-26T19:31:59;26.08;;;14.43;;
37131;SDS011;23035;50.032;21.978;2022-10-26T19:37:05;37.20;;;18.27;;
37131;SDS011;23035;50.032;21.978;2022-10-26T19:42:10;28.70;;;14.73;;
37131;SDS011;23035;50.032;21.978;2022-10-26T19:47:14;23.83;;;13.23;;
37131;SDS011;23035;50.032;21.978;2022-10-26T19:52:19;25.77;;;14.20;;
37131;SDS011;23035;50.032;21.978;2022-10-26T19:57:23;30.65;;;14.57;;
37131;SDS011;23035;50.032;21.978;2022-10-26T20:02:27;26.95;;;13.95;;
37131;SDS011;23035;50.032;21.978;2022-10-26T20:07:32;30.50;;;14.05;;
37131;SDS011;23035;50.032;21.978;2022-10-26T20:12:36;24.13;;;14.23;;
37131;SDS011;23035;50.032;21.978;2022-10-26T20:17:40;28.75;;;14.57;;
37131;SDS011;23035;50.032;21.978;2022-10-26T20:22:45;25.25;;;13.77;;
37131;SDS011;23035;50.032;21.978;2022-10-26T20:27:49;27.90;;;15.25;;
37131;SDS011;23035;50.032;21.978;2022-10-26T20:32:54;28.60;;;15.50;;
37131;SDS011;23035;50.032;21.978;2022-10-26T20:38:00;32.58;;;16.67;;
37131;SDS011;23035;50.032;21.978;2022-10-26T20:43:05;32.22;;;16.33;;
37131;SDS011;23035;50.032;21.978;2022-10-26T20:48:11;275.35;;;132.57;;
37131;SDS011;23035;50.032;21.978;2022-10-26T20:58:32;135.40;;;64.40;;
37131;SDS011;23035;50.032;21.978;2022-10-26T21:03:40;96.18;;;46.03;;
37131;SDS011;23035;50.032;21.978;2022-10-26T21:08:48;89.07;;;44.57;;
37131;SDS011;23035;50.032;21.978;2022-10-26T21:13:53;35.50;;;19.92;;
37131;SDS011;23035;50.032;21.978;2022-10-26T21:18:57;35.20;;;18.85;;
37131;SDS011;23035;50.032;21.978;2022-10-26T21:24:04;28.48;;;15.93;;
37131;SDS011;23035;50.032;21.978;2022-10-26T21:29:09;24.33;;;14.98;;
37131;SDS011;23035;50.032;21.978;2022-10-26T21:34:13;29.92;;;15.43;;
37131;SDS011;23035;50.032;21.978;2022-10-26T21:39:18;28.95;;;16.58;;
37131;SDS011;23035;50.032;21.978;2022-10-26T21:44:22;25.15;;;15.50;;
37131;SDS011;23035;50.032;21.978;2022-10-26T21:49:42;30.52;;;16.77;;
37131;SDS011;23035;50.032;21.978;2022-10-26T21:54:47;31.75;;;16.80;;
37131;SDS011;23035;50.032;21.978;2022-10-26T21:59:51;28.95;;;17.23;;
37131;SDS011;23035;50.032;21.978;2022-10-26T22:04:55;32.08;;;16.88;;
37131;SDS011;23035;50.032;21.978;2022-10-26T22:10:00;33.65;;;16.38;;
37131;SDS011;23035;50.032;21.978;2022-10-26T22:15:12;25.70;;;15.20;;
37131;SDS011;23035;50.032;21.978;2022-10-26T22:20:16;28.05;;;14.65;;
37131;SDS011;23035;50.032;21.978;2022-10-26T22:25:21;23.85;;;14.30;;
37131;SDS011;23035;50.032;21.978;2022-10-26T22:30:25;24.52;;;15.38;;
37131;SDS011;23035;50.032;21.978;2022-10-26T22:35:29;26.75;;;13.68;;
37131;SDS011;23035;50.032;21.978;2022-10-26T22:40:34;24.25;;;14.00;;
37131;SDS011;23035;50.032;21.978;2022-10-26T22:45:38;24.55;;;14.55;;
37131;SDS011;23035;50.032;21.978;2022-10-26T22:50:42;26.02;;;13.20;;
37131;SDS011;23035;50.032;21.978;2022-10-26T22:55:47;22.75;;;14.20;;
37131;SDS011;23035;50.032;21.978;2022-10-26T23:00:51;25.05;;;13.85;;
37131;SDS011;23035;50.032;21.978;2022-10-26T23:05:55;21.23;;;12.52;;
37131;SDS011;23035;50.032;21.978;2022-10-26T23:11:01;26.10;;;13.50;;
37131;SDS011;23035;50.032;21.978;2022-10-26T23:16:08;32.50;;;16.25;;
37131;SDS011;23035;50.032;21.978;2022-10-26T23:21:13;22.23;;;13.75;;
37131;SDS011;23035;50.032;21.978;2022-10-26T23:26:20;21.90;;;12.63;;
37131;SDS011;23035;50.032;21.978;2022-10-26T23:31:25;22.02;;;13.20;;
37131;SDS011;23035;50.032;21.978;2022-10-26T23:36:29;21.45;;;12.35;;
37131;SDS011;23035;50.032;21.978;2022-10-26T23:41:34;23.08;;;13.60;;
37131;SDS011;23035;50.032;21.978;2022-10-26T23:46:38;22.37;;;13.17;;
37131;SDS011;23035;50.032;21.978;2022-10-26T23:51:42;24.00;;;13.05;;
37131;SDS011;23035;50.032;21.978;2022-10-26T23:56:47;22.80;;;12.32;;
